1859 Tropical Storm NOT_NAMED (1859312N13278)


IBTrACS version v04r00. Visit IBTrACS website for data access.
Please direct all questions to the IBTrACS Q and A forum

Storm track - Intensity - Wind Radii - Intensity Data - Source Data - All data

Summary Information

Storm ID 1859312N13278
Start Nov 8 00Z
Landfall Nov 12 09Z, Nov 14 09Z
Max Intensity 55 kt (Nov 12 06Z)
End Nov 15 00Z
ATCF IDs
Track status Best track data.

Storm track plot

Map of storm track

Intensity plots

Map of storm track

Radial wind information

No radial wind information for this storm


Position and Intensity Table

BASIN ISO_TIME_________ NATURE LAT LON MLC WIND
degrees north degrees east kts
NA 1859-11-08 00:00:00 TS 12.80 -82.40 30
NA 03:00:00 TS 12.86 -82.45 30
NA 06:00:00 TS 12.90 -82.50 30
NA 09:00:00 TS 12.92 -82.55 30
NA 12:00:00 TS 13.00 -82.60 30
NA 15:00:00 TS 13.22 -82.65 30
NA 18:00:00 TS 13.50 -82.70 30
NA 21:00:00 TS 13.75 -82.75 30
NA 1859-11-09 00:00:00 TS 14.00 -82.80 30
NA 03:00:00 TS 14.25 -82.85 30
NA 06:00:00 TS 14.50 -82.90 30
NA 09:00:00 TS 14.73 -82.94 32
NA 12:00:00 TS 15.00 -83.00 35
NA 15:00:00 TS 15.34 -83.10 35
NA 18:00:00 TS 15.70 -83.20 35
NA 21:00:00 TS 16.01 -83.26 35
NA 1859-11-10 00:00:00 TS 16.30 -83.30 35
NA 03:00:00 TS 16.60 -83.35 35
NA 06:00:00 TS 16.90 -83.40 35
NA 09:00:00 TS 17.21 -83.44 37
NA 12:00:00 TS 17.50 -83.50 40
NA 15:00:00 TS 17.72 -83.64 40
NA 18:00:00 TS 17.90 -83.80 40
NA 21:00:00 TS 18.06 -83.90 40
NA 1859-11-11 00:00:00 TS 18.30 -84.00 40
NA 03:00:00 TS 18.72 -84.15 40
NA 06:00:00 TS 19.20 -84.30 40
NA 09:00:00 TS 19.62 -84.44 42
NA 12:00:00 TS 20.00 -84.50 45
NA 15:00:00 TS 20.32 -84.42 45
NA 18:00:00 TS 20.60 -84.30 45
NA 21:00:00 TS 20.90 -84.24 47
NA 1859-11-12 00:00:00 TS 21.20 -84.20 50
NA 03:00:00 TS 21.50 -84.15 52
NA 06:00:00 TS 21.80 -84.10 55
NA 09:00:00 TS 22.12 -84.06 55
NA 12:00:00 TS 22.40 -84.00 55
NA 15:00:00 TS 22.57 -83.91 55
NA 18:00:00 TS 22.70 -83.80 55
NA 21:00:00 TS 22.85 -83.71 55
NA 1859-11-13 00:00:00 TS 23.00 -83.60 55
NA 03:00:00 TS 23.15 -83.46 55
NA 06:00:00 TS 23.30 -83.30 55
NA 09:00:00 TS 23.45 -83.16 55
NA 12:00:00 TS 23.60 -83.00 55
NA 15:00:00 TS 23.75 -82.81 55
NA 18:00:00 TS 23.90 -82.60 55
NA 21:00:00 TS 24.01 -82.46 55
NA 1859-11-14 00:00:00 TS 24.20 -82.20 55
NA 03:00:00 TS 24.53 -81.67 55
NA 06:00:00 TS 25.00 -81.00 55
NA 09:00:00 TS 25.29 -80.53 55
NA 12:00:00 TS 26.20 -79.60 55
NA 15:00:00 TS 28.52 -77.79 55
NA 18:00:00 TS 31.10 -75.10 55
NA 21:00:00 TS 32.87 -71.74 55
NA 1859-11-15 00:00:00 ET 34.00 -68.00 55

Source Information

Agency Information
USA
TOKYO
CMA
HKO
NEWDELHI
REUNION
BOM
NADI
WELLINGTON
DS824
TD9636
TD9635
NEUMANN
MLC

All available IBTrACS Data

SEASON BASIN SUBBASIN ISO_TIME_________ NATURE LAT LON DIST2LAND LANDFALL IFLAG USA SSHS MLC LAT MLC LON MLC CLASS MLC WIND STORM SPEED STORM DIR
Year degrees north degrees east km km 1 degrees north degrees east kts kts degrees
1859 NA CS 1859-11-08 00:00:00 TS 12.80 -82.40 119 119 _____________O -1 12.80 -82.40 TD 30 2 319
1859 NA CS 03:00:00 TS 12.86 -82.45 119 108 _____________P -1 12.86 -82.45 TD 30 1 317
1859 NA CS 06:00:00 TS 12.90 -82.50 108 108 _____________O -1 12.90 -82.50 TD 30 1 302
1859 NA CS 09:00:00 TS 12.92 -82.55 97 97 _____________P -1 12.92 -82.55 TD 30 1 317
1859 NA CS 12:00:00 TS 13.00 -82.60 97 97 _____________O -1 13.00 -82.60 TD 30 3 343
1859 NA CS 15:00:00 TS 13.22 -82.65 97 86 _____________P -1 13.22 -82.65 TD 30 5 349
1859 NA CS 18:00:00 TS 13.50 -82.70 86 82 _____________O -1 13.50 -82.70 TD 30 5 350
1859 NA CS 21:00:00 TS 13.75 -82.75 68 54 _____________P -1 13.75 -82.75 TD 30 5 349
1859 NA CS 1859-11-09 00:00:00 TS 14.00 -82.80 54 44 _____________O -1 14.00 -82.80 TD 30 5 349
1859 NA CS 03:00:00 TS 14.25 -82.85 32 32 _____________P -1 14.25 -82.85 TD 30 5 349
1859 NA CS 06:00:00 TS 14.50 -82.90 39 39 _____________O -1 14.50 -82.90 TD 30 5 350
1859 NA CS 09:00:00 TS 14.73 -82.94 39 10 _____________P -1 14.73 -82.94 TD 32 5 349
1859 NA CS 12:00:00 TS 15.00 -83.00 10 10 _____________O -1 15.00 -83.00 TS 35 6 346
1859 NA CS 15:00:00 TS 15.34 -83.10 31 31 _____________P -1 15.34 -83.10 TS 35 7 345
1859 NA CS 18:00:00 TS 15.70 -83.20 49 49 _____________O -1 15.70 -83.20 TS 35 7 347
1859 NA CS 21:00:00 TS 16.01 -83.26 79 79 _____________P -1 16.01 -83.26 TS 35 6 351
1859 NA CS 1859-11-10 00:00:00 TS 16.30 -83.30 108 108 _____________O -1 16.30 -83.30 TS 35 6 352
1859 NA CS 03:00:00 TS 16.60 -83.35 128 128 _____________P -1 16.60 -83.35 TS 35 6 351
1859 NA CS 06:00:00 TS 16.90 -83.40 156 156 _____________O -1 16.90 -83.40 TS 35 6 352
1859 NA CS 09:00:00 TS 17.21 -83.44 183 183 _____________P -1 17.21 -83.44 TS 37 6 351
1859 NA CS 12:00:00 TS 17.50 -83.50 208 208 _____________O -1 17.50 -83.50 TS 40 5 338
1859 NA CS 15:00:00 TS 17.72 -83.64 225 222 _____________P -1 17.72 -83.64 TS 40 5 325
1859 NA CS 18:00:00 TS 17.90 -83.80 240 240 _____________O -1 17.90 -83.80 TS 40 4 325
1859 NA CS 21:00:00 TS 18.06 -83.90 260 260 _____________P -1 18.06 -83.90 TS 40 4 335
1859 NA CS 1859-11-11 00:00:00 TS 18.30 -84.00 278 278 _____________O -1 18.30 -84.00 TS 40 7 340
1859 NA CS 03:00:00 TS 18.72 -84.15 319 290 _____________P -1 18.72 -84.15 TS 40 9 342
1859 NA CS 06:00:00 TS 19.20 -84.30 290 246 _____________O -1 19.20 -84.30 TS 40 9 343
1859 NA CS 09:00:00 TS 19.62 -84.44 246 201 _____________P -1 19.62 -84.44 TS 42 8 347
1859 NA CS 12:00:00 TS 20.00 -84.50 201 168 _____________O -1 20.00 -84.50 TS 45 7 0
1859 NA CS 15:00:00 TS 20.32 -84.42 168 135 _____________P -1 20.32 -84.42 TS 45 6 17
1859 NA CS 18:00:00 TS 20.60 -84.30 135 105 _____________O -1 20.60 -84.30 TS 45 6 16
1859 NA CS 21:00:00 TS 20.90 -84.24 105 73 _____________P -1 20.90 -84.24 TS 47 6 9
1859 NA CS 1859-11-12 00:00:00 TS 21.20 -84.20 73 44 _____________O -1 21.20 -84.20 TS 50 6 8
1859 NA CS 03:00:00 TS 21.50 -84.15 44 11 _____________P -1 21.50 -84.15 TS 52 6 9
1859 NA CS 06:00:00 TS 21.80 -84.10 11 0 _____________O -1 21.80 -84.10 TS 55 6 8
1859 NA NA 09:00:00 TS 22.12 -84.06 0 0 _____________P -1 22.12 -84.06 TS 55 6 8
1859 NA NA 12:00:00 TS 22.40 -84.00 0 0 _____________O -1 22.40 -84.00 TS 55 5 17
1859 NA NA 15:00:00 TS 22.57 -83.91 0 0 _____________P -1 22.57 -83.91 TS 55 4 31
1859 NA NA 18:00:00 TS 22.70 -83.80 0 0 _____________O -1 22.70 -83.80 TS 55 3 34
1859 NA GM 21:00:00 TS 22.85 -83.71 0 0 _____________P -1 22.85 -83.71 TS 55 4 31
1859 NA GM 1859-11-13 00:00:00 TS 23.00 -83.60 22 22 _____________O -1 23.00 -83.60 TS 55 4 38
1859 NA GM 03:00:00 TS 23.15 -83.46 35 33 _____________P -1 23.15 -83.46 TS 55 4 43
1859 NA GM 06:00:00 TS 23.30 -83.30 44 44 _____________O -1 23.30 -83.30 TS 55 4 43
1859 NA GM 09:00:00 TS 23.45 -83.16 55 55 _____________P -1 23.45 -83.16 TS 55 4 42
1859 NA GM 12:00:00 TS 23.60 -83.00 70 67 _____________O -1 23.60 -83.00 TS 55 4 47
1859 NA NA 15:00:00 TS 23.75 -82.81 84 80 _____________P -1 23.75 -82.81 TS 55 5 51
1859 NA NA 18:00:00 TS 23.90 -82.60 89 89 _____________O -1 23.90 -82.60 TS 55 4 51
1859 NA NA 21:00:00 TS 24.01 -82.46 100 100 _____________P -1 24.01 -82.46 TS 55 5 50
1859 NA NA 1859-11-14 00:00:00 TS 24.20 -82.20 122 90 _____________O -1 24.20 -82.20 TS 55 9 54
1859 NA NA 03:00:00 TS 24.53 -81.67 90 11 _____________P -1 24.53 -81.67 TS 55 14 54
1859 NA GM 06:00:00 TS 25.00 -81.00 15 0 _____________O -1 25.00 -81.00 TS 55 13 54
1859 NA NA 09:00:00 TS 25.29 -80.53 0 0 _____________P -1 25.29 -80.53 TS 55 17 47
1859 NA NA 12:00:00 TS 26.20 -79.60 49 49 _____________O -1 26.20 -79.60 TS 55 41 37
1859 NA NA 15:00:00 TS 28.52 -77.79 263 263 _____________P -1 28.52 -77.79 TS 55 63 39
1859 NA NA 18:00:00 TS 31.10 -75.10 413 392 _____________O -1 31.10 -75.10 TS 55 68 50
1859 NA NA 21:00:00 TS 32.87 -71.74 474 474 _____________P -1 32.87 -71.74 TS 55 66 64
1859 NA NA 1859-11-15 00:00:00 ET 34.00 -68.00 711 _____________O -1 34.00 -68.00 EX 55 66 70